2021-01-23 - 14:21:00

SR: 0722 - SS: 1601

RWY: 25


OBSERVATION: n/a

RVR Mean 1 min: (Runway Visual Range)
A: P2000 - B: P2000 - C: P2000
RVR Mean 10 min:
A: P2000 - B: P2000 - C: P2000
WARNING: n/a
W25: 190-240(220-07kt) 05kt-12kt
W07: 200-270(230-07kt) 02kt-11kt
OTHER: n/a

QFE: (tatsächlicher Luftdruck) 988.5 hPa = 29.17 inHg
QNH:(Luftdruck auf Meereshöhe) 994.3 hPa = 29.35 inHg
Temperatur: 5.4 °C
Dew point(Taupunkt): 1.2 °C

METAR:  00455 SADL31 EDDG 231420 METAR EDDG 231420Z 22008KT 9999 BKN024 05/01 Q0994 NOSIG= 
METAR (aus weather.noaa.gov):
2021/01/23 14:20 EDDG 231420Z 22008KT 9999 BKN024 05/01 Q0994 NOSIG

TAF (aus weather.noaa.gov):
2021/01/23 12:27 TAF EDDG 231100Z 2312/2412 20008KT 9999 BKN025 BECMG 2314/2317 VRB02KT BECMG 2400/2402 3000 -SNRA BR BKN007 TEMPO 2402/2409 1200 SN BKN003 BECMG 2403/2406 27005KT BECMG 2409/2412 25010KT 8000
NOWCAST
798
FODL44 EDDG 231400
FODL44 EDDG 2101231405
# Nowcasting EDDG 23.01.2021 14:05 UTC
Parameter/Stunde15161718192021
Windrichtung220200200180160140130
Windgeschwindigkeit5432111
Böen--------------
Lufttemperatur 5 5 4 3 3 2 2
Taupunkt 1 1 1 1 1 0 0
Belagstemperatur 4 3 2 1 1 1 0
Wetter-vorherrschend--------------
QNH 994 994 994 994 994 994 994
Wind in 5000 ft250/15250/10240/10230/05220/05220/05220/05
Wind in 3000 ft240/15240/15230/10210/10210/05200/05180/05
Wind in 2000 ft230/15230/10230/10220/05180/05180/05180/05
Wind in 1000 ft210/10210/10210/10190/05170/10180/10170/05